CheckWX is a tool to help pilots better visualize weather data.  It is not intended as a substitute for an official pre-flight weather briefing.

16:55:22 UTC

ETAD TAF
Spangdahlem Air Base Airport
Trier, Germany
TAF ETAD 181200Z 1812/1918 VRB03KT 9999 SCT050 QNH2999INS BECMG 1817/1818 VRB05KT 9999 FEW035 BKN150 QNH2991INS BECMG 1912/1913 20013G20KT 9999 SCT040 BKN100 QNH2986INS TX26/1813Z TN14/1904Z

Jun-18@
12:00 UTC

Jun-18 @ 12:00 UTC

Jun-18@
17:00 UTC

Jun-18 @ 17:00 UTC

TAF ETAD 181200Z 1812/1918 VRB03KT 9999 SCT050 QNH2999INS
Wind
  • Variable at 3 KTS
Cloud Levels
  • Scattered at 5,000' AGL

Jun-18@
17:00 UTC

Jun-18 @ 17:00 UTC

Jun-19@
12:00 UTC

Jun-19 @ 12:00 UTC

BECMG 1817/1818 VRB05KT 9999 FEW035 BKN150 QNH2991INS

Becoming

Becoming Conditions expected by Tue, Jun 18, 2019 @ 18:00 UTC

Wind
  • Variable at 5 KTS
Cloud Levels
  • Few at 3,500' AGL
  • Broken at 15,000' AGL

Jun-19@
12:00 UTC

Jun-19 @ 12:00 UTC

Jun-19@
18:00 UTC

Jun-19 @ 18:00 UTC

BECMG 1912/1913 20013G20KT 9999 SCT040 BKN100 QNH2986INS TX26/1813Z TN14/1904Z

Becoming

Becoming Conditions expected by Wed, Jun 19, 2019 @ 13:00 UTC

Wind
  • 200° at 13 KTS
  • {Gusting to 20 KTS
Cloud Levels
  • Scattered at 4,000' AGL
  • Broken at 10,000' AGL